sensor_id;sensor_type;location;lat;lon;timestamp;temperature;humidity
32428;DHT22;18882;50.952;4.366;2022-08-03T00:01:28;21.90;99.90
32428;DHT22;18882;50.952;4.366;2022-08-03T00:03:54;21.90;99.90
32428;DHT22;18882;50.952;4.366;2022-08-03T00:06:20;21.80;99.90
32428;DHT22;18882;50.952;4.366;2022-08-03T00:08:45;21.80;99.90
32428;DHT22;18882;50.952;4.366;2022-08-03T00:11:11;21.80;99.90
32428;DHT22;18882;50.952;4.366;2022-08-03T00:13:37;21.80;99.90
32428;DHT22;18882;50.952;4.366;2022-08-03T00:16:02;21.70;99.90
32428;DHT22;18882;50.952;4.366;2022-08-03T00:18:28;21.70;99.90
32428;DHT22;18882;50.952;4.366;2022-08-03T00:20:54;21.60;99.90
32428;DHT22;18882;50.952;4.366;2022-08-03T00:23:20;21.60;99.90
32428;DHT22;18882;50.952;4.366;2022-08-03T00:25:45;21.60;99.90
32428;DHT22;18882;50.952;4.366;2022-08-03T00:28:11;21.60;99.90
32428;DHT22;18882;50.952;4.366;2022-08-03T00:30:37;21.60;99.90
32428;DHT22;18882;50.952;4.366;2022-08-03T00:33:03;21.50;99.90
32428;DHT22;18882;50.952;4.366;2022-08-03T00:35:29;21.50;99.90
32428;DHT22;18882;50.952;4.366;2022-08-03T00:37:55;21.40;99.90
32428;DHT22;18882;50.952;4.366;2022-08-03T00:40:21;21.40;99.90
32428;DHT22;18882;50.952;4.366;2022-08-03T00:42:52;21.40;99.90
32428;DHT22;18882;50.952;4.366;2022-08-03T00:45:19;21.40;99.90
32428;DHT22;18882;50.952;4.366;2022-08-03T00:47:46;21.40;99.90
32428;DHT22;18882;50.952;4.366;2022-08-03T00:50:12;21.40;99.90
32428;DHT22;18882;50.952;4.366;2022-08-03T00:52:38;21.30;99.90
32428;DHT22;18882;50.952;4.366;2022-08-03T00:55:04;21.40;99.90
32428;DHT22;18882;50.952;4.366;2022-08-03T00:57:31;21.50;99.90
32428;DHT22;18882;50.952;4.366;2022-08-03T00:59:57;21.40;99.90
32428;DHT22;18882;50.952;4.366;2022-08-03T01:02:25;21.20;99.90
32428;DHT22;18882;50.952;4.366;2022-08-03T01:04:51;21.20;99.90
32428;DHT22;18882;50.952;4.366;2022-08-03T01:15:53;21.30;99.90
32428;DHT22;18882;50.952;4.366;2022-08-03T01:19:01;21.30;99.90
32428;DHT22;18882;50.952;4.366;2022-08-03T01:21:45;21.20;99.90
32428;DHT22;18882;50.952;4.366;2022-08-03T01:24:31;21.10;99.90
32428;DHT22;18882;50.952;4.366;2022-08-03T01:27:17;21.10;99.90
32428;DHT22;18882;50.952;4.366;2022-08-03T01:30:08;21.00;99.90
32428;DHT22;18882;50.952;4.366;2022-08-03T01:32:51;21.00;99.90
32428;DHT22;18882;50.952;4.366;2022-08-03T01:38:16;20.90;99.90
32428;DHT22;18882;50.952;4.366;2022-08-03T01:40:43;20.90;99.90
32428;DHT22;18882;50.952;4.366;2022-08-03T01:43:15;20.90;99.90
32428;DHT22;18882;50.952;4.366;2022-08-03T01:45:42;20.90;99.90
32428;DHT22;18882;50.952;4.366;2022-08-03T01:48:11;21.00;99.90
32428;DHT22;18882;50.952;4.366;2022-08-03T01:50:37;20.90;99.90
32428;DHT22;18882;50.952;4.366;2022-08-03T01:53:04;20.90;99.90
32428;DHT22;18882;50.952;4.366;2022-08-03T01:55:34;20.90;99.90
32428;DHT22;18882;50.952;4.366;2022-08-03T01:58:02;20.80;99.90
32428;DHT22;18882;50.952;4.366;2022-08-03T02:00:29;20.80;99.90
32428;DHT22;18882;50.952;4.366;2022-08-03T02:02:57;20.90;99.90
32428;DHT22;18882;50.952;4.366;2022-08-03T02:05:23;21.00;99.90
32428;DHT22;18882;50.952;4.366;2022-08-03T02:07:51;20.80;99.90
32428;DHT22;18882;50.952;4.366;2022-08-03T02:10:19;20.80;99.90
32428;DHT22;18882;50.952;4.366;2022-08-03T02:12:47;20.70;99.90
32428;DHT22;18882;50.952;4.366;2022-08-03T02:15:15;20.70;99.90
32428;DHT22;18882;50.952;4.366;2022-08-03T02:17:42;20.70;99.90
32428;DHT22;18882;50.952;4.366;2022-08-03T02:20:10;20.70;99.90
32428;DHT22;18882;50.952;4.366;2022-08-03T02:22:40;20.60;99.90
32428;DHT22;18882;50.952;4.366;2022-08-03T02:25:11;20.60;99.90
32428;DHT22;18882;50.952;4.366;2022-08-03T02:27:43;20.60;99.90
32428;DHT22;18882;50.952;4.366;2022-08-03T02:30:13;20.50;99.90
32428;DHT22;18882;50.952;4.366;2022-08-03T02:32:41;20.50;99.90
32428;DHT22;18882;50.952;4.366;2022-08-03T02:35:12;20.50;99.90
32428;DHT22;18882;50.952;4.366;2022-08-03T02:37:45;20.40;99.90
32428;DHT22;18882;50.952;4.366;2022-08-03T02:40:14;20.50;99.90
32428;DHT22;18882;50.952;4.366;2022-08-03T02:42:41;20.40;99.90
32428;DHT22;18882;50.952;4.366;2022-08-03T02:45:10;20.40;99.90
32428;DHT22;18882;50.952;4.366;2022-08-03T02:47:40;20.40;99.90
32428;DHT22;18882;50.952;4.366;2022-08-03T02:50:11;20.30;99.90
32428;DHT22;18882;50.952;4.366;2022-08-03T02:52:38;20.40;99.90
32428;DHT22;18882;50.952;4.366;2022-08-03T02:55:06;20.40;99.90
32428;DHT22;18882;50.952;4.366;2022-08-03T02:57:34;20.40;99.90
32428;DHT22;18882;50.952;4.366;2022-08-03T03:00:01;20.40;99.90
32428;DHT22;18882;50.952;4.366;2022-08-03T03:02:27;20.40;99.90
32428;DHT22;18882;50.952;4.366;2022-08-03T03:04:54;20.40;99.90
32428;DHT22;18882;50.952;4.366;2022-08-03T03:07:20;20.30;99.90
32428;DHT22;18882;50.952;4.366;2022-08-03T03:09:47;20.30;99.90
32428;DHT22;18882;50.952;4.366;2022-08-03T03:12:13;20.20;99.90
32428;DHT22;18882;50.952;4.366;2022-08-03T03:14:40;20.20;99.90
32428;DHT22;18882;50.952;4.366;2022-08-03T03:17:08;20.20;99.90
32428;DHT22;18882;50.952;4.366;2022-08-03T03:19:34;20.10;99.90
32428;DHT22;18882;50.952;4.366;2022-08-03T03:22:02;20.10;99.90
32428;DHT22;18882;50.952;4.366;2022-08-03T03:24:29;20.10;99.90
32428;DHT22;18882;50.952;4.366;2022-08-03T03:26:56;20.10;99.90
32428;DHT22;18882;50.952;4.366;2022-08-03T03:29:22;20.00;99.90
32428;DHT22;18882;50.952;4.366;2022-08-03T03:31:48;19.90;99.90
32428;DHT22;18882;50.952;4.366;2022-08-03T03:34:14;19.90;99.90
32428;DHT22;18882;50.952;4.366;2022-08-03T03:36:40;19.90;99.90
32428;DHT22;18882;50.952;4.366;2022-08-03T03:39:06;19.90;99.90
32428;DHT22;18882;50.952;4.366;2022-08-03T03:41:32;19.90;99.90
32428;DHT22;18882;50.952;4.366;2022-08-03T03:43:59;19.80;99.90
32428;DHT22;18882;50.952;4.366;2022-08-03T03:46:25;19.80;99.90
32428;DHT22;18882;50.952;4.366;2022-08-03T03:48:50;19.80;99.90
32428;DHT22;18882;50.952;4.366;2022-08-03T03:51:16;19.70;99.90
32428;DHT22;18882;50.952;4.366;2022-08-03T03:54:03;19.70;99.90
32428;DHT22;18882;50.952;4.366;2022-08-03T03:56:31;19.80;99.90
32428;DHT22;18882;50.952;4.366;2022-08-03T03:58:57;19.80;99.90
32428;DHT22;18882;50.952;4.366;2022-08-03T04:01:23;19.80;99.90
32428;DHT22;18882;50.952;4.366;2022-08-03T04:03:49;19.80;99.90
32428;DHT22;18882;50.952;4.366;2022-08-03T04:06:15;19.70;99.90
32428;DHT22;18882;50.952;4.366;2022-08-03T04:09:00;19.70;99.90
32428;DHT22;18882;50.952;4.366;2022-08-03T04:11:53;19.60;99.90
32428;DHT22;18882;50.952;4.366;2022-08-03T04:14:28;19.70;99.90
32428;DHT22;18882;50.952;4.366;2022-08-03T04:17:05;19.70;99.90
32428;DHT22;18882;50.952;4.366;2022-08-03T04:19:33;19.70;99.90
32428;DHT22;18882;50.952;4.366;2022-08-03T04:22:02;19.70;99.90
32428;DHT22;18882;50.952;4.366;2022-08-03T04:24:33;19.70;99.90
32428;DHT22;18882;50.952;4.366;2022-08-03T04:27:02;19.60;99.90
32428;DHT22;18882;50.952;4.366;2022-08-03T04:29:30;19.60;99.90
32428;DHT22;18882;50.952;4.366;2022-08-03T04:31:58;19.60;99.90
32428;DHT22;18882;50.952;4.366;2022-08-03T04:34:25;19.60;99.90
32428;DHT22;18882;50.952;4.366;2022-08-03T04:36:58;19.70;99.90
32428;DHT22;18882;50.952;4.366;2022-08-03T04:39:26;19.60;99.90
32428;DHT22;18882;50.952;4.366;2022-08-03T04:41:54;19.70;99.90
32428;DHT22;18882;50.952;4.366;2022-08-03T04:44:22;19.70;99.90
32428;DHT22;18882;50.952;4.366;2022-08-03T04:46:49;19.70;99.90
32428;DHT22;18882;50.952;4.366;2022-08-03T04:49:16;19.70;99.90
32428;DHT22;18882;50.952;4.366;2022-08-03T04:51:42;19.70;99.90
32428;DHT22;18882;50.952;4.366;2022-08-03T04:54:12;19.80;99.90
32428;DHT22;18882;50.952;4.366;2022-08-03T04:56:41;19.80;99.90
32428;DHT22;18882;50.952;4.366;2022-08-03T04:59:10;19.80;99.90
32428;DHT22;18882;50.952;4.366;2022-08-03T05:01:36;19.80;99.90
32428;DHT22;18882;50.952;4.366;2022-08-03T05:04:03;19.80;99.90
32428;DHT22;18882;50.952;4.366;2022-08-03T05:06:29;19.80;99.90
32428;DHT22;18882;50.952;4.366;2022-08-03T05:08:55;19.90;99.90
32428;DHT22;18882;50.952;4.366;2022-08-03T05:11:21;20.00;99.90
32428;DHT22;18882;50.952;4.366;2022-08-03T05:13:47;19.90;99.90
32428;DHT22;18882;50.952;4.366;2022-08-03T05:16:13;19.90;99.90
32428;DHT22;18882;50.952;4.366;2022-08-03T05:18:40;20.00;99.90
32428;DHT22;18882;50.952;4.366;2022-08-03T05:21:06;20.00;99.90
32428;DHT22;18882;50.952;4.366;2022-08-03T05:23:32;20.10;99.90
32428;DHT22;18882;50.952;4.366;2022-08-03T05:25:58;20.10;99.90
32428;DHT22;18882;50.952;4.366;2022-08-03T05:28:24;20.10;99.90
32428;DHT22;18882;50.952;4.366;2022-08-03T05:30:49;20.20;99.90
32428;DHT22;18882;50.952;4.366;2022-08-03T05:33:15;20.30;99.90
32428;DHT22;18882;50.952;4.366;2022-08-03T05:35:41;20.30;99.90
32428;DHT22;18882;50.952;4.366;2022-08-03T05:38:07;20.40;99.90
32428;DHT22;18882;50.952;4.366;2022-08-03T05:40:33;20.50;99.90
32428;DHT22;18882;50.952;4.366;2022-08-03T05:42:58;20.60;99.90
32428;DHT22;18882;50.952;4.366;2022-08-03T05:45:24;20.70;99.90
32428;DHT22;18882;50.952;4.366;2022-08-03T05:47:50;20.80;99.90
32428;DHT22;18882;50.952;4.366;2022-08-03T05:50:17;20.90;99.90
32428;DHT22;18882;50.952;4.366;2022-08-03T05:52:43;21.00;99.90
32428;DHT22;18882;50.952;4.366;2022-08-03T05:55:11;21.20;99.90
32428;DHT22;18882;50.952;4.366;2022-08-03T05:57:38;21.20;99.90
32428;DHT22;18882;50.952;4.366;2022-08-03T06:00:06;21.30;99.90
32428;DHT22;18882;50.952;4.366;2022-08-03T06:02:32;21.40;99.90
32428;DHT22;18882;50.952;4.366;2022-08-03T06:04:57;21.50;99.90
32428;DHT22;18882;50.952;4.366;2022-08-03T06:07:23;21.70;99.90
32428;DHT22;18882;50.952;4.366;2022-08-03T06:09:49;21.80;99.90
32428;DHT22;18882;50.952;4.366;2022-08-03T06:12:15;21.80;99.90
32428;DHT22;18882;50.952;4.366;2022-08-03T06:14:41;22.10;99.90
32428;DHT22;18882;50.952;4.366;2022-08-03T06:17:06;22.40;99.90
32428;DHT22;18882;50.952;4.366;2022-08-03T06:19:32;22.70;99.90
32428;DHT22;18882;50.952;4.366;2022-08-03T06:21:58;22.80;99.90
32428;DHT22;18882;50.952;4.366;2022-08-03T06:24:24;22.90;99.90
32428;DHT22;18882;50.952;4.366;2022-08-03T06:26:49;22.90;99.90
32428;DHT22;18882;50.952;4.366;2022-08-03T06:29:15;22.90;99.90
32428;DHT22;18882;50.952;4.366;2022-08-03T06:31:41;22.90;99.90
32428;DHT22;18882;50.952;4.366;2022-08-03T06:34:06;23.10;99.90
32428;DHT22;18882;50.952;4.366;2022-08-03T06:36:32;23.10;99.90
32428;DHT22;18882;50.952;4.366;2022-08-03T06:38:58;23.10;99.90
32428;DHT22;18882;50.952;4.366;2022-08-03T06:41:25;23.20;99.90
32428;DHT22;18882;50.952;4.366;2022-08-03T06:43:51;23.20;99.90
32428;DHT22;18882;50.952;4.366;2022-08-03T06:46:16;23.30;99.90
32428;DHT22;18882;50.952;4.366;2022-08-03T06:48:42;23.40;99.90
32428;DHT22;18882;50.952;4.366;2022-08-03T06:51:08;23.50;99.90
32428;DHT22;18882;50.952;4.366;2022-08-03T06:53:34;23.50;99.90
32428;DHT22;18882;50.952;4.366;2022-08-03T06:56:00;23.50;99.90
32428;DHT22;18882;50.952;4.366;2022-08-03T06:58:26;23.80;99.90
32428;DHT22;18882;50.952;4.366;2022-08-03T07:00:51;24.10;99.90
32428;DHT22;18882;50.952;4.366;2022-08-03T07:03:17;24.20;99.90
32428;DHT22;18882;50.952;4.366;2022-08-03T07:05:43;24.30;99.90
32428;DHT22;18882;50.952;4.366;2022-08-03T07:08:11;24.40;99.90
32428;DHT22;18882;50.952;4.366;2022-08-03T07:10:37;24.50;99.90
32428;DHT22;18882;50.952;4.366;2022-08-03T07:13:03;24.50;99.90
32428;DHT22;18882;50.952;4.366;2022-08-03T07:15:29;24.60;99.90
32428;DHT22;18882;50.952;4.366;2022-08-03T07:17:56;24.50;99.90
32428;DHT22;18882;50.952;4.366;2022-08-03T07:20:21;24.40;99.90
32428;DHT22;18882;50.952;4.366;2022-08-03T07:22:47;24.40;99.90
32428;DHT22;18882;50.952;4.366;2022-08-03T07:25:13;24.50;99.90
32428;DHT22;18882;50.952;4.366;2022-08-03T07:27:43;24.40;99.90
32428;DHT22;18882;50.952;4.366;2022-08-03T07:30:09;24.50;99.90
32428;DHT22;18882;50.952;4.366;2022-08-03T07:32:35;24.60;99.90
32428;DHT22;18882;50.952;4.366;2022-08-03T07:35:01;24.70;99.90
32428;DHT22;18882;50.952;4.366;2022-08-03T07:37:28;24.70;99.90
32428;DHT22;18882;50.952;4.366;2022-08-03T07:39:54;24.70;99.90
32428;DHT22;18882;50.952;4.366;2022-08-03T07:42:20;24.60;99.90
32428;DHT22;18882;50.952;4.366;2022-08-03T07:44:45;24.60;99.90
32428;DHT22;18882;50.952;4.366;2022-08-03T07:47:11;24.70;99.90
32428;DHT22;18882;50.952;4.366;2022-08-03T07:49:40;24.60;99.90
32428;DHT22;18882;50.952;4.366;2022-08-03T07:52:06;24.60;99.90
32428;DHT22;18882;50.952;4.366;2022-08-03T07:54:50;24.70;99.90
32428;DHT22;18882;50.952;4.366;2022-08-03T07:57:15;24.80;99.90
32428;DHT22;18882;50.952;4.366;2022-08-03T07:59:41;24.80;99.90
32428;DHT22;18882;50.952;4.366;2022-08-03T08:02:07;24.90;99.90
32428;DHT22;18882;50.952;4.366;2022-08-03T08:04:32;25.00;99.90
32428;DHT22;18882;50.952;4.366;2022-08-03T08:06:58;25.00;99.90
32428;DHT22;18882;50.952;4.366;2022-08-03T08:09:24;25.10;99.90
32428;DHT22;18882;50.952;4.366;2022-08-03T08:11:50;25.10;99.90
32428;DHT22;18882;50.952;4.366;2022-08-03T08:14:15;25.30;99.90
32428;DHT22;18882;50.952;4.366;2022-08-03T08:16:41;25.50;99.90
32428;DHT22;18882;50.952;4.366;2022-08-03T08:19:06;25.60;99.90
32428;DHT22;18882;50.952;4.366;2022-08-03T08:21:32;25.80;99.90
32428;DHT22;18882;50.952;4.366;2022-08-03T08:23:58;26.10;99.90
32428;DHT22;18882;50.952;4.366;2022-08-03T08:26:24;26.40;99.90
32428;DHT22;18882;50.952;4.366;2022-08-03T08:28:50;26.60;99.90
32428;DHT22;18882;50.952;4.366;2022-08-03T08:31:17;26.90;99.90
32428;DHT22;18882;50.952;4.366;2022-08-03T08:33:43;27.00;99.90
32428;DHT22;18882;50.952;4.366;2022-08-03T08:36:09;27.10;99.90
32428;DHT22;18882;50.952;4.366;2022-08-03T08:38:34;27.10;99.90
32428;DHT22;18882;50.952;4.366;2022-08-03T08:41:00;27.10;99.90
32428;DHT22;18882;50.952;4.366;2022-08-03T08:43:27;27.10;99.90
32428;DHT22;18882;50.952;4.366;2022-08-03T08:45:53;27.10;99.90
32428;DHT22;18882;50.952;4.366;2022-08-03T08:48:24;27.20;99.90
32428;DHT22;18882;50.952;4.366;2022-08-03T08:50:55;27.30;99.90
32428;DHT22;18882;50.952;4.366;2022-08-03T08:53:25;27.40;99.90
32428;DHT22;18882;50.952;4.366;2022-08-03T08:55:52;27.40;99.90
32428;DHT22;18882;50.952;4.366;2022-08-03T08:58:20;27.40;99.90
32428;DHT22;18882;50.952;4.366;2022-08-03T09:00:48;27.30;99.90
32428;DHT22;18882;50.952;4.366;2022-08-03T09:03:14;27.30;99.90
32428;DHT22;18882;50.952;4.366;2022-08-03T09:05:42;27.40;99.90
32428;DHT22;18882;50.952;4.366;2022-08-03T09:08:08;27.50;99.90
32428;DHT22;18882;50.952;4.366;2022-08-03T09:10:34;27.50;99.90
32428;DHT22;18882;50.952;4.366;2022-08-03T09:12:59;27.50;99.90
32428;DHT22;18882;50.952;4.366;2022-08-03T09:15:32;27.70;99.90
32428;DHT22;18882;50.952;4.366;2022-08-03T09:18:00;27.90;99.90
32428;DHT22;18882;50.952;4.366;2022-08-03T09:20:31;28.00;99.90
32428;DHT22;18882;50.952;4.366;2022-08-03T09:23:02;28.20;99.90
32428;DHT22;18882;50.952;4.366;2022-08-03T09:25:30;28.40;99.90
32428;DHT22;18882;50.952;4.366;2022-08-03T09:28:10;28.50;99.90
32428;DHT22;18882;50.952;4.366;2022-08-03T09:30:38;28.50;99.90
32428;DHT22;18882;50.952;4.366;2022-08-03T09:33:08;28.60;99.90
32428;DHT22;18882;50.952;4.366;2022-08-03T09:35:47;28.60;99.90
32428;DHT22;18882;50.952;4.366;2022-08-03T09:40:43;28.60;99.90
32428;DHT22;18882;50.952;4.366;2022-08-03T09:43:10;29.10;99.90
32428;DHT22;18882;50.952;4.366;2022-08-03T09:45:37;29.30;99.90
32428;DHT22;18882;50.952;4.366;2022-08-03T09:48:23;29.40;99.90
32428;DHT22;18882;50.952;4.366;2022-08-03T09:50:50;29.60;99.90
32428;DHT22;18882;50.952;4.366;2022-08-03T09:53:17;29.90;99.90
32428;DHT22;18882;50.952;4.366;2022-08-03T09:55:57;29.90;99.90
32428;DHT22;18882;50.952;4.366;2022-08-03T09:58:24;30.10;99.90
32428;DHT22;18882;50.952;4.366;2022-08-03T10:01:04;30.60;99.90
32428;DHT22;18882;50.952;4.366;2022-08-03T10:03:34;31.20;99.90
32428;DHT22;18882;50.952;4.366;2022-08-03T10:06:17;31.20;99.90
32428;DHT22;18882;50.952;4.366;2022-08-03T10:08:49;30.80;99.90
32428;DHT22;18882;50.952;4.366;2022-08-03T10:11:29;30.70;99.90
32428;DHT22;18882;50.952;4.366;2022-08-03T10:13:55;30.60;99.90
32428;DHT22;18882;50.952;4.366;2022-08-03T10:16:21;30.50;99.90
32428;DHT22;18882;50.952;4.366;2022-08-03T10:18:47;30.50;99.90
32428;DHT22;18882;50.952;4.366;2022-08-03T10:21:16;30.50;99.90
32428;DHT22;18882;50.952;4.366;2022-08-03T10:23:45;30.60;99.90
32428;DHT22;18882;50.952;4.366;2022-08-03T10:26:15;30.80;99.90
32428;DHT22;18882;50.952;4.366;2022-08-03T10:28:48;31.30;99.90
32428;DHT22;18882;50.952;4.366;2022-08-03T10:31:15;31.90;99.90
32428;DHT22;18882;50.952;4.366;2022-08-03T10:33:46;32.90;99.90
32428;DHT22;18882;50.952;4.366;2022-08-03T10:36:14;33.70;99.90
32428;DHT22;18882;50.952;4.366;2022-08-03T10:38:46;34.00;99.90
32428;DHT22;18882;50.952;4.366;2022-08-03T10:41:15;34.60;99.90
32428;DHT22;18882;50.952;4.366;2022-08-03T10:44:10;35.40;99.90
32428;DHT22;18882;50.952;4.366;2022-08-03T10:46:38;35.60;99.90
32428;DHT22;18882;50.952;4.366;2022-08-03T10:49:05;35.90;98.70
32428;DHT22;18882;50.952;4.366;2022-08-03T10:51:31;35.90;98.80
32428;DHT22;18882;50.952;4.366;2022-08-03T10:53:59;35.70;98.80
32428;DHT22;18882;50.952;4.366;2022-08-03T10:56:44;35.40;98.70
32428;DHT22;18882;50.952;4.366;2022-08-03T11:02:10;34.20;99.70
32428;DHT22;18882;50.952;4.366;2022-08-03T11:04:36;33.80;99.90
32428;DHT22;18882;50.952;4.366;2022-08-03T11:09:45;32.70;99.90
32428;DHT22;18882;50.952;4.366;2022-08-03T11:12:26;32.30;99.90
32428;DHT22;18882;50.952;4.366;2022-08-03T11:14:54;32.00;99.90
32428;DHT22;18882;50.952;4.366;2022-08-03T11:17:20;31.70;99.90
32428;DHT22;18882;50.952;4.366;2022-08-03T11:19:50;31.60;99.90
32428;DHT22;18882;50.952;4.366;2022-08-03T11:22:17;31.60;99.90
32428;DHT22;18882;50.952;4.366;2022-08-03T11:35:15;31.20;99.90
32428;DHT22;18882;50.952;4.366;2022-08-03T11:38:07;31.30;99.90
32428;DHT22;18882;50.952;4.366;2022-08-03T11:40:52;31.30;99.90
32428;DHT22;18882;50.952;4.366;2022-08-03T11:46:05;31.60;99.90
32428;DHT22;18882;50.952;4.366;2022-08-03T11:48:38;31.40;99.90
32428;DHT22;18882;50.952;4.366;2022-08-03T11:51:06;31.30;99.90
32428;DHT22;18882;50.952;4.366;2022-08-03T11:53:33;31.30;99.90
32428;DHT22;18882;50.952;4.366;2022-08-03T11:56:00;31.30;99.90
32428;DHT22;18882;50.952;4.366;2022-08-03T11:58:27;31.40;99.90
32428;DHT22;18882;50.952;4.366;2022-08-03T12:01:05;31.40;99.90
32428;DHT22;18882;50.952;4.366;2022-08-03T12:03:33;31.50;99.90
32428;DHT22;18882;50.952;4.366;2022-08-03T12:06:01;31.40;99.90
32428;DHT22;18882;50.952;4.366;2022-08-03T12:08:32;31.40;99.90
32428;DHT22;18882;50.952;4.366;2022-08-03T12:11:00;31.50;99.90
32428;DHT22;18882;50.952;4.366;2022-08-03T12:13:27;31.60;99.90
32428;DHT22;18882;50.952;4.366;2022-08-03T12:16:01;31.70;99.90
32428;DHT22;18882;50.952;4.366;2022-08-03T12:18:27;31.80;99.90
32428;DHT22;18882;50.952;4.366;2022-08-03T12:21:03;31.80;99.90
32428;DHT22;18882;50.952;4.366;2022-08-03T12:23:32;32.00;99.90
32428;DHT22;18882;50.952;4.366;2022-08-03T12:26:09;32.20;99.90
32428;DHT22;18882;50.952;4.366;2022-08-03T12:28:35;32.30;99.90
32428;DHT22;18882;50.952;4.366;2022-08-03T12:31:07;32.40;99.90
32428;DHT22;18882;50.952;4.366;2022-08-03T12:36:21;32.30;99.90
32428;DHT22;18882;50.952;4.366;2022-08-03T12:38:57;32.40;99.90
32428;DHT22;18882;50.952;4.366;2022-08-03T12:41:37;32.30;99.90
32428;DHT22;18882;50.952;4.366;2022-08-03T12:44:04;32.20;99.90
32428;DHT22;18882;50.952;4.366;2022-08-03T12:46:38;32.10;99.90
32428;DHT22;18882;50.952;4.366;2022-08-03T12:49:07;32.20;99.90
32428;DHT22;18882;50.952;4.366;2022-08-03T12:51:57;32.20;99.90
32428;DHT22;18882;50.952;4.366;2022-08-03T12:54:26;32.30;99.90
32428;DHT22;18882;50.952;4.366;2022-08-03T12:56:59;32.30;99.90
32428;DHT22;18882;50.952;4.366;2022-08-03T12:59:33;32.20;99.90
32428;DHT22;18882;50.952;4.366;2022-08-03T13:01:59;32.30;99.90
32428;DHT22;18882;50.952;4.366;2022-08-03T13:04:33;32.40;99.90
32428;DHT22;18882;50.952;4.366;2022-08-03T13:07:04;32.50;99.90
32428;DHT22;18882;50.952;4.366;2022-08-03T13:09:52;32.60;99.90
32428;DHT22;18882;50.952;4.366;2022-08-03T13:12:22;32.70;99.90
32428;DHT22;18882;50.952;4.366;2022-08-03T13:14:50;32.80;99.00
32428;DHT22;18882;50.952;4.366;2022-08-03T13:17:16;32.70;99.60
32428;DHT22;18882;50.952;4.366;2022-08-03T13:19:44;32.50;99.20
32428;DHT22;18882;50.952;4.366;2022-08-03T13:22:15;32.40;99.50
32428;DHT22;18882;50.952;4.366;2022-08-03T13:24:42;32.30;99.90
32428;DHT22;18882;50.952;4.366;2022-08-03T13:27:08;32.40;99.90
32428;DHT22;18882;50.952;4.366;2022-08-03T13:29:34;32.50;99.90
32428;DHT22;18882;50.952;4.366;2022-08-03T13:32:03;32.40;99.40
32428;DHT22;18882;50.952;4.366;2022-08-03T13:34:29;32.30;99.90
32428;DHT22;18882;50.952;4.366;2022-08-03T13:36:54;32.20;99.90
32428;DHT22;18882;50.952;4.366;2022-08-03T13:39:20;32.20;99.90
32428;DHT22;18882;50.952;4.366;2022-08-03T13:41:46;32.40;99.30
32428;DHT22;18882;50.952;4.366;2022-08-03T13:44:12;32.50;99.30
32428;DHT22;18882;50.952;4.366;2022-08-03T13:46:38;32.60;98.50
32428;DHT22;18882;50.952;4.366;2022-08-03T13:49:04;32.30;99.00
32428;DHT22;18882;50.952;4.366;2022-08-03T13:51:30;32.10;99.20
32428;DHT22;18882;50.952;4.366;2022-08-03T13:53:56;32.10;99.70
32428;DHT22;18882;50.952;4.366;2022-08-03T13:56:24;32.20;99.30
32428;DHT22;18882;50.952;4.366;2022-08-03T13:58:50;32.30;99.70
32428;DHT22;18882;50.952;4.366;2022-08-03T14:01:16;32.50;99.20
32428;DHT22;18882;50.952;4.366;2022-08-03T14:03:42;32.40;98.50
32428;DHT22;18882;50.952;4.366;2022-08-03T14:06:07;32.30;98.90
32428;DHT22;18882;50.952;4.366;2022-08-03T14:08:33;32.40;98.80
32428;DHT22;18882;50.952;4.366;2022-08-03T14:10:59;32.50;98.20
32428;DHT22;18882;50.952;4.366;2022-08-03T14:13:25;32.50;98.60
32428;DHT22;18882;50.952;4.366;2022-08-03T14:15:50;32.50;99.20
32428;DHT22;18882;50.952;4.366;2022-08-03T14:18:18;32.50;99.20
32428;DHT22;18882;50.952;4.366;2022-08-03T14:20:44;32.40;98.60
32428;DHT22;18882;50.952;4.366;2022-08-03T14:23:10;32.20;97.60
32428;DHT22;18882;50.952;4.366;2022-08-03T14:25:36;31.90;98.00
32428;DHT22;18882;50.952;4.366;2022-08-03T14:28:01;32.00;98.70
32428;DHT22;18882;50.952;4.366;2022-08-03T14:30:27;32.20;97.90
32428;DHT22;18882;50.952;4.366;2022-08-03T14:32:53;32.30;98.30
32428;DHT22;18882;50.952;4.366;2022-08-03T14:35:18;32.40;98.30
32428;DHT22;18882;50.952;4.366;2022-08-03T14:37:44;32.60;97.40
32428;DHT22;18882;50.952;4.366;2022-08-03T14:40:10;32.80;97.70
32428;DHT22;18882;50.952;4.366;2022-08-03T14:42:35;32.90;97.20
32428;DHT22;18882;50.952;4.366;2022-08-03T14:45:01;32.80;97.40
32428;DHT22;18882;50.952;4.366;2022-08-03T14:47:27;32.80;97.10
32428;DHT22;18882;50.952;4.366;2022-08-03T14:49:52;32.80;97.80
32428;DHT22;18882;50.952;4.366;2022-08-03T14:52:18;32.90;98.00
32428;DHT22;18882;50.952;4.366;2022-08-03T14:54:46;32.90;97.60
32428;DHT22;18882;50.952;4.366;2022-08-03T14:57:12;33.00;97.00
32428;DHT22;18882;50.952;4.366;2022-08-03T14:59:38;33.00;97.10
32428;DHT22;18882;50.952;4.366;2022-08-03T15:02:04;33.00;96.90
32428;DHT22;18882;50.952;4.366;2022-08-03T15:04:32;33.00;96.80
32428;DHT22;18882;50.952;4.366;2022-08-03T15:06:58;33.00;96.60
32428;DHT22;18882;50.952;4.366;2022-08-03T15:09:23;33.00;96.80
32428;DHT22;18882;50.952;4.366;2022-08-03T15:11:49;33.00;97.10
32428;DHT22;18882;50.952;4.366;2022-08-03T15:14:15;33.00;97.30
32428;DHT22;18882;50.952;4.366;2022-08-03T15:16:41;32.90;96.90
32428;DHT22;18882;50.952;4.366;2022-08-03T15:19:06;32.90;97.00
32428;DHT22;18882;50.952;4.366;2022-08-03T15:21:32;32.90;96.90
32428;DHT22;18882;50.952;4.366;2022-08-03T15:23:58;33.00;96.70
32428;DHT22;18882;50.952;4.366;2022-08-03T15:26:23;33.00;97.10
32428;DHT22;18882;50.952;4.366;2022-08-03T15:28:49;33.00;97.30
32428;DHT22;18882;50.952;4.366;2022-08-03T15:31:20;33.00;96.90
32428;DHT22;18882;50.952;4.366;2022-08-03T15:33:45;33.00;96.60
32428;DHT22;18882;50.952;4.366;2022-08-03T15:36:11;32.90;96.60
32428;DHT22;18882;50.952;4.366;2022-08-03T15:38:37;32.90;96.90
32428;DHT22;18882;50.952;4.366;2022-08-03T15:41:02;32.90;96.80
32428;DHT22;18882;50.952;4.366;2022-08-03T15:43:28;33.00;96.90
32428;DHT22;18882;50.952;4.366;2022-08-03T15:45:54;33.00;96.60
32428;DHT22;18882;50.952;4.366;2022-08-03T15:48:19;33.20;96.50
32428;DHT22;18882;50.952;4.366;2022-08-03T15:50:47;33.30;96.40
32428;DHT22;18882;50.952;4.366;2022-08-03T15:53:13;33.40;96.20
32428;DHT22;18882;50.952;4.366;2022-08-03T15:55:38;33.10;96.30
32428;DHT22;18882;50.952;4.366;2022-08-03T15:58:04;33.20;96.90
32428;DHT22;18882;50.952;4.366;2022-08-03T16:00:30;33.20;96.40
32428;DHT22;18882;50.952;4.366;2022-08-03T16:02:56;33.10;96.50
32428;DHT22;18882;50.952;4.366;2022-08-03T16:05:22;33.10;96.20
32428;DHT22;18882;50.952;4.366;2022-08-03T16:07:47;33.10;96.00
32428;DHT22;18882;50.952;4.366;2022-08-03T16:10:18;33.30;95.70
32428;DHT22;18882;50.952;4.366;2022-08-03T16:12:44;33.40;95.60